createdAt,value
2022-08-10T00:02:19.147Z,22.80
2022-08-10T00:04:46.817Z,22.59
2022-08-10T00:07:14.500Z,22.39
2022-08-10T00:09:50.984Z,22.39
2022-08-10T00:12:20.348Z,22.43
2022-08-10T00:14:48.552Z,22.51
2022-08-10T00:17:16.291Z,22.22
2022-08-10T00:20:02.932Z,22.37
2022-08-10T00:22:34.015Z,22.37
2022-08-10T00:25:02.553Z,22.17
2022-08-10T00:27:52.894Z,22.16
2022-08-10T00:30:18.717Z,22.12
2022-08-10T00:32:46.372Z,22.03
2022-08-10T00:35:15.349Z,21.99
2022-08-10T00:37:43.057Z,21.86
2022-08-10T00:40:35.442Z,21.85
2022-08-10T00:43:06.086Z,21.78
2022-08-10T00:45:33.807Z,21.89
2022-08-10T00:48:01.479Z,21.87
2022-08-10T00:50:30.790Z,21.60
2022-08-10T00:52:58.805Z,21.56
2022-08-10T00:55:27.281Z,21.55
2022-08-10T00:57:56.409Z,21.57
2022-08-10T01:00:24.526Z,21.61
2022-08-10T01:02:53.138Z,21.47
2022-08-10T01:05:22.018Z,21.49
2022-08-10T01:08:16.655Z,21.40
2022-08-10T01:10:53.448Z,21.25
2022-08-10T01:13:33.742Z,21.12
2022-08-10T01:16:06.919Z,21.08
2022-08-10T01:18:49.641Z,20.93
2022-08-10T01:21:53.877Z,20.92
2022-08-10T01:25:00.147Z,20.90
2022-08-10T01:27:34.976Z,20.79
2022-08-10T01:30:08.915Z,20.62
2022-08-10T01:32:50.217Z,20.70
2022-08-10T01:35:25.543Z,20.71
2022-08-10T01:38:03.334Z,20.56
2022-08-10T01:40:36.792Z,20.51
2022-08-10T01:43:09.757Z,20.23
2022-08-10T01:45:44.528Z,20.17
2022-08-10T01:48:28.632Z,20.09
2022-08-10T01:51:01.526Z,20.10
2022-08-10T01:53:41.301Z,19.79
2022-08-10T01:56:11.869Z,19.60
2022-08-10T01:58:40.628Z,19.40
2022-08-10T02:01:16.823Z,19.13
2022-08-10T02:04:03.531Z,19.03
2022-08-10T02:06:36.708Z,18.85
2022-08-10T02:09:06.466Z,18.91
2022-08-10T02:12:06.036Z,18.65
2022-08-10T02:14:25.642Z,18.69
2022-08-10T02:17:03.761Z,18.46
2022-08-10T02:19:34.504Z,18.24
2022-08-10T02:22:37.115Z,18.00
2022-08-10T02:24:53.641Z,18.01
2022-08-10T02:27:25.944Z,17.94
2022-08-10T02:29:54.724Z,17.91
2022-08-10T02:32:36.132Z,17.77
2022-08-10T02:35:13.291Z,17.71
2022-08-10T02:37:51.445Z,17.61
2022-08-10T02:45:15.498Z,17.57
2022-08-10T02:45:21.463Z,17.48
2022-08-10T02:46:04.270Z,17.60
2022-08-10T02:48:42.055Z,17.40
2022-08-10T02:51:12.661Z,17.29
2022-08-10T02:53:55.070Z,17.33
2022-08-10T02:56:27.253Z,17.41
2022-08-10T02:58:57.823Z,17.20
2022-08-10T03:01:28.261Z,17.15
2022-08-10T03:04:00.136Z,17.08
2022-08-10T03:06:31.549Z,17.07
2022-08-10T03:09:00.277Z,17.00
2022-08-10T03:12:35.314Z,17.02
2022-08-10T03:14:18.056Z,16.85
2022-08-10T03:16:47.324Z,16.81
2022-08-10T03:20:34.894Z,16.79
2022-08-10T03:22:05.540Z,16.65
2022-08-10T03:24:33.695Z,16.76
2022-08-10T03:27:01.458Z,16.62
2022-08-10T03:29:29.698Z,16.51
2022-08-10T03:31:57.798Z,16.47
2022-08-10T03:34:33.548Z,16.36
2022-08-10T03:37:01.735Z,16.55
2022-08-10T03:39:29.457Z,16.47
2022-08-10T03:42:00.098Z,16.41
2022-08-10T03:44:31.116Z,16.36
2022-08-10T03:47:00.698Z,16.37
2022-08-10T03:49:30.863Z,16.36
2022-08-10T03:51:58.861Z,16.27
2022-08-10T03:54:27.618Z,16.20
2022-08-10T03:56:55.513Z,16.18
2022-08-10T03:59:23.228Z,16.18
2022-08-10T04:02:46.823Z,16.22
2022-08-10T04:04:40.455Z,16.06
2022-08-10T04:07:09.270Z,16.03
2022-08-10T04:09:54.615Z,16.03
2022-08-10T04:12:23.768Z,15.96
2022-08-10T04:14:53.330Z,16.02
2022-08-10T04:18:01.396Z,15.95
2022-08-10T04:20:13.081Z,15.92
2022-08-10T04:22:40.961Z,15.92
2022-08-10T04:25:09.759Z,15.85
2022-08-10T04:27:37.316Z,15.84
2022-08-10T04:30:05.450Z,15.76
2022-08-10T04:32:34.326Z,15.77
2022-08-10T04:35:04.654Z,15.79
2022-08-10T04:37:37.279Z,15.76
2022-08-10T04:40:29.934Z,15.91
2022-08-10T04:43:01.377Z,15.97
2022-08-10T04:45:48.793Z,15.98
2022-08-10T04:48:41.601Z,16.09
2022-08-10T04:51:07.901Z,16.09
2022-08-10T04:54:02.645Z,16.00
2022-08-10T04:56:31.698Z,16.13
2022-08-10T04:58:59.830Z,16.14
2022-08-10T05:01:27.595Z,16.24
2022-08-10T05:04:35.285Z,16.36
2022-08-10T05:07:02.602Z,16.35
2022-08-10T05:09:31.428Z,16.30
2022-08-10T05:11:58.914Z,16.39
2022-08-10T05:14:26.437Z,16.49
2022-08-10T05:16:53.945Z,16.59
2022-08-10T05:20:01.933Z,16.67
2022-08-10T05:22:08.964Z,16.87
2022-08-10T05:24:38.191Z,17.10
2022-08-10T05:27:10.023Z,17.19
2022-08-10T05:29:37.897Z,17.23
2022-08-10T05:32:05.906Z,17.45
2022-08-10T05:34:33.962Z,17.71
2022-08-10T05:37:01.573Z,17.77
2022-08-10T05:39:31.849Z,17.85
2022-08-10T05:42:02.636Z,18.15
2022-08-10T05:44:30.411Z,18.08
2022-08-10T05:46:58.229Z,18.35
2022-08-10T05:49:25.888Z,18.44
2022-08-10T05:51:53.669Z,18.54
2022-08-10T05:54:21.526Z,18.86
2022-08-10T05:56:54.147Z,18.80
2022-08-10T06:00:30.970Z,19.32
2022-08-10T06:02:31.948Z,19.48
2022-08-10T06:05:05.582Z,19.95
2022-08-10T06:07:33.613Z,20.25
2022-08-10T06:10:03.920Z,20.63
2022-08-10T06:12:55.741Z,21.06
2022-08-10T06:15:50.719Z,21.69
2022-08-10T06:18:15.357Z,22.63
2022-08-10T06:20:43.505Z,23.22
2022-08-10T06:23:12.963Z,23.74
2022-08-10T06:26:11.097Z,24.05
2022-08-10T06:28:34.117Z,23.85
2022-08-10T06:31:05.229Z,24.51
2022-08-10T06:33:36.996Z,24.51
2022-08-10T06:36:07.106Z,25.19
2022-08-10T06:38:36.917Z,25.23
2022-08-10T06:41:09.580Z,25.63
2022-08-10T06:43:41.441Z,25.63
2022-08-10T06:46:17.501Z,26.26
2022-08-10T06:48:50.737Z,26.29
2022-08-10T06:51:24.061Z,26.74
2022-08-10T06:53:55.431Z,27.23
2022-08-10T06:56:36.596Z,27.42
2022-08-10T06:59:13.341Z,27.49
2022-08-10T07:01:55.582Z,27.90
2022-08-10T07:04:31.925Z,28.44
2022-08-10T07:07:04.943Z,27.51
2022-08-10T07:09:36.002Z,27.62
2022-08-10T07:12:07.753Z,27.51
2022-08-10T07:14:39.457Z,27.48
2022-08-10T07:17:15.620Z,27.37
2022-08-10T07:19:50.493Z,27.69
2022-08-10T07:23:01.619Z,27.27
2022-08-10T07:25:13.855Z,27.48
2022-08-10T07:28:00.197Z,27.52
2022-08-10T07:30:30.650Z,27.89
2022-08-10T07:33:01.229Z,28.32
2022-08-10T07:35:36.407Z,28.53
2022-08-10T07:38:06.855Z,28.42
2022-08-10T07:40:35.667Z,28.71
2022-08-10T07:43:04.020Z,28.67
2022-08-10T07:45:34.369Z,28.27
2022-08-10T07:48:08.018Z,28.33
2022-08-10T07:50:38.574Z,28.60
2022-08-10T07:53:09.646Z,29.16
2022-08-10T07:56:05.687Z,28.89
2022-08-10T07:58:30.934Z,29.45
2022-08-10T08:01:01.206Z,29.74
2022-08-10T08:03:33.515Z,28.78
2022-08-10T08:06:09.059Z,29.14
2022-08-10T08:08:41.666Z,28.98
2022-08-10T08:11:10.331Z,29.38
2022-08-10T08:13:56.136Z,30.04
2022-08-10T08:16:25.645Z,30.60
2022-08-10T08:24:05.895Z,29.97
2022-08-10T08:24:36.911Z,30.02
2022-08-10T08:27:07.715Z,30.04
2022-08-10T08:29:38.348Z,30.42
2022-08-10T08:32:32.787Z,31.03
2022-08-10T08:35:04.509Z,31.03
2022-08-10T08:38:29.623Z,30.24
2022-08-10T08:40:26.054Z,30.10
2022-08-10T08:43:14.073Z,30.46
2022-08-10T08:46:01.937Z,31.00
2022-08-10T08:48:57.896Z,30.98
2022-08-10T08:52:07.903Z,30.82
2022-08-10T08:54:45.901Z,30.94
2022-08-10T08:57:49.511Z,31.29
2022-08-10T09:00:26.262Z,31.21
2022-08-10T09:03:35.519Z,31.86
2022-08-10T09:06:14.873Z,31.60
2022-08-10T09:09:09.316Z,31.66
2022-08-10T09:11:52.241Z,31.56
2022-08-10T09:14:27.019Z,31.89
2022-08-10T09:17:00.668Z,32.02
2022-08-10T09:19:34.955Z,32.62
2022-08-10T09:22:18.208Z,32.30
2022-08-10T09:24:55.336Z,32.18
2022-08-10T09:27:27.830Z,32.69
2022-08-10T09:29:57.292Z,32.53
2022-08-10T09:36:15.737Z,32.05
2022-08-10T09:36:27.002Z,31.98
2022-08-10T09:38:23.842Z,32.37
2022-08-10T09:41:04.077Z,32.47
2022-08-10T09:43:45.476Z,32.05
2022-08-10T09:46:27.314Z,32.32
2022-08-10T09:49:05.171Z,32.12
2022-08-10T09:51:48.064Z,32.16
2022-08-10T09:54:44.499Z,32.48
2022-08-10T09:57:44.988Z,32.35
2022-08-10T10:00:16.005Z,32.39
2022-08-10T10:02:56.228Z,32.47
2022-08-10T10:05:38.127Z,32.41
2022-08-10T10:08:17.630Z,31.97
2022-08-10T10:10:54.518Z,32.28
2022-08-10T10:13:52.728Z,32.17
2022-08-10T10:16:44.950Z,33.12
2022-08-10T10:19:36.165Z,33.31
2022-08-10T10:22:22.018Z,32.23
2022-08-10T10:24:56.837Z,31.43
2022-08-10T10:27:38.456Z,31.96
2022-08-10T10:30:10.917Z,33.18
2022-08-10T10:33:03.761Z,33.74
2022-08-10T10:35:37.988Z,32.59
2022-08-10T10:38:10.103Z,32.86
2022-08-10T10:40:44.950Z,32.31
2022-08-10T10:43:43.517Z,32.21
2022-08-10T10:46:25.688Z,32.52
2022-08-10T10:49:04.457Z,32.38
2022-08-10T10:51:39.205Z,33.28
2022-08-10T10:54:13.285Z,33.67
2022-08-10T10:56:55.271Z,32.60
2022-08-10T10:59:55.480Z,33.37
2022-08-10T11:02:47.409Z,33.39
2022-08-10T11:05:28.255Z,33.60
2022-08-10T11:08:01.010Z,33.23
2022-08-10T11:10:36.652Z,32.73
2022-08-10T11:14:26.345Z,33.12
2022-08-10T11:16:25.668Z,33.62
2022-08-10T11:19:00.034Z,33.71
2022-08-10T11:21:39.708Z,33.57
2022-08-10T11:24:48.419Z,33.46
2022-08-10T11:27:08.823Z,33.38
2022-08-10T11:29:52.823Z,34.02
2022-08-10T11:32:27.200Z,33.91
2022-08-10T11:35:11.279Z,33.45
2022-08-10T11:38:33.005Z,32.76
2022-08-10T11:40:40.282Z,33.04
2022-08-10T11:43:13.307Z,34.12
2022-08-10T11:45:51.370Z,33.41
2022-08-10T11:48:53.070Z,33.99
2022-08-10T11:51:22.366Z,33.88
2022-08-10T11:53:56.326Z,33.99
2022-08-10T11:56:31.031Z,33.73
2022-08-10T11:59:17.612Z,32.78
2022-08-10T12:01:48.162Z,33.31
2022-08-10T12:04:17.637Z,33.43
2022-08-10T12:06:56.434Z,34.23
2022-08-10T12:10:05.016Z,34.36
2022-08-10T12:12:14.204Z,33.94
2022-08-10T12:14:47.518Z,34.00
2022-08-10T12:17:21.620Z,33.78
2022-08-10T12:20:01.148Z,33.57
2022-08-10T12:22:37.594Z,34.31
2022-08-10T12:25:10.430Z,34.26
2022-08-10T12:27:42.616Z,34.47
2022-08-10T12:30:14.423Z,34.67
2022-08-10T12:32:46.468Z,34.74
2022-08-10T12:35:26.343Z,34.26
2022-08-10T12:38:06.912Z,34.51
2022-08-10T12:40:41.025Z,34.45
2022-08-10T12:44:07.806Z,34.11
2022-08-10T12:46:08.200Z,34.39
2022-08-10T12:48:39.537Z,34.55
2022-08-10T12:51:14.541Z,33.72
2022-08-10T12:53:51.088Z,34.37
2022-08-10T12:56:27.081Z,35.06
2022-08-10T12:59:01.170Z,35.12
2022-08-10T13:02:06.514Z,35.27
2022-08-10T13:04:28.832Z,34.70
2022-08-10T13:06:59.481Z,34.32
2022-08-10T13:09:29.126Z,34.55
2022-08-10T13:12:37.152Z,35.12
2022-08-10T13:14:54.213Z,33.97
2022-08-10T13:17:39.133Z,34.48
2022-08-10T13:20:17.135Z,33.80
2022-08-10T13:22:48.721Z,34.37
2022-08-10T13:25:21.256Z,34.39
2022-08-10T13:28:02.614Z,34.65
2022-08-10T13:30:40.527Z,34.80
2022-08-10T13:33:11.870Z,34.83
2022-08-10T13:35:40.243Z,34.29
2022-08-10T13:38:09.873Z,34.14
2022-08-10T13:40:40.507Z,34.47
2022-08-10T13:43:09.932Z,34.03
2022-08-10T13:45:47.901Z,34.74
2022-08-10T13:48:20.635Z,34.46
2022-08-10T13:50:51.689Z,34.65
2022-08-10T13:53:23.359Z,34.85
2022-08-10T13:55:56.855Z,35.10
2022-08-10T13:58:30.198Z,35.69
2022-08-10T14:01:00.013Z,35.09
2022-08-10T14:03:29.213Z,35.16
2022-08-10T14:05:59.328Z,34.45
2022-08-10T14:08:30.435Z,34.43
2022-08-10T14:11:11.537Z,34.95
2022-08-10T14:13:45.420Z,35.51
2022-08-10T14:16:14.501Z,34.99
2022-08-10T14:18:45.092Z,34.43
2022-08-10T14:21:13.828Z,34.25
2022-08-10T14:23:42.319Z,34.12
2022-08-10T14:26:24.464Z,35.12
2022-08-10T14:28:55.171Z,34.53
2022-08-10T14:31:30.014Z,34.68
2022-08-10T14:34:01.159Z,34.08
2022-08-10T14:36:42.376Z,33.83
2022-08-10T14:39:15.699Z,33.80
2022-08-10T14:42:03.138Z,34.36
2022-08-10T14:44:44.830Z,34.51
2022-08-10T14:47:54.230Z,35.02
2022-08-10T14:50:04.109Z,34.59
2022-08-10T14:52:44.081Z,34.82
2022-08-10T14:55:19.575Z,35.31
2022-08-10T14:58:19.646Z,34.19
2022-08-10T15:00:43.061Z,33.78
2022-08-10T15:04:00.837Z,33.94
2022-08-10T15:06:09.295Z,33.86
2022-08-10T15:08:46.948Z,33.31
2022-08-10T15:12:15.110Z,32.90
2022-08-10T15:14:15.155Z,32.44
2022-08-10T15:16:56.538Z,32.83
2022-08-10T15:20:00.866Z,32.51
2022-08-10T15:22:36.565Z,32.11
2022-08-10T15:25:18.033Z,31.66
2022-08-10T15:27:53.556Z,31.78
2022-08-10T15:30:29.823Z,32.06
2022-08-10T15:33:20.929Z,32.46
2022-08-10T15:36:08.737Z,32.42
2022-08-10T15:38:40.309Z,32.33
2022-08-10T15:41:16.072Z,32.47
2022-08-10T15:43:46.928Z,32.94
2022-08-10T15:46:29.851Z,33.13
2022-08-10T15:49:03.039Z,32.70
2022-08-10T15:51:53.587Z,32.32
2022-08-10T15:54:33.300Z,32.81
2022-08-10T15:57:04.632Z,32.33
2022-08-10T15:59:41.776Z,32.69
2022-08-10T16:02:17.503Z,32.66
2022-08-10T16:04:50.233Z,32.58
2022-08-10T16:07:22.758Z,32.48
2022-08-10T16:10:28.039Z,32.60
2022-08-10T16:13:01.134Z,32.74
2022-08-10T16:15:31.035Z,32.66
2022-08-10T16:18:02.989Z,32.58
2022-08-10T16:20:53.342Z,32.37
2022-08-10T16:23:26.003Z,31.97
2022-08-10T16:25:58.328Z,32.24
2022-08-10T16:28:33.087Z,31.93
2022-08-10T16:31:03.007Z,32.08
2022-08-10T16:33:53.148Z,32.00
2022-08-10T16:36:23.356Z,31.96
2022-08-10T16:38:53.551Z,31.74
2022-08-10T16:42:02.137Z,31.97
2022-08-10T16:44:17.417Z,31.87
2022-08-10T16:46:46.738Z,31.90
2022-08-10T16:49:19.310Z,31.79
2022-08-10T16:51:49.188Z,31.67
2022-08-10T16:54:26.282Z,31.60
2022-08-10T16:57:01.004Z,31.52
2022-08-10T16:59:31.648Z,31.45
2022-08-10T17:02:01.289Z,31.33
2022-08-10T17:04:32.222Z,31.24
2022-08-10T17:07:01.549Z,31.26
2022-08-10T17:09:32.986Z,31.07
2022-08-10T17:12:05.884Z,30.91
2022-08-10T17:14:33.892Z,31.02
2022-08-10T17:17:07.171Z,30.83
2022-08-10T17:19:40.902Z,30.64
2022-08-10T17:22:14.247Z,30.61
2022-08-10T17:24:47.266Z,30.50
2022-08-10T17:28:32.836Z,30.59
2022-08-10T17:30:13.974Z,30.41
2022-08-10T17:32:46.957Z,30.41
2022-08-10T17:35:23.606Z,30.33
2022-08-10T17:37:57.636Z,30.15
2022-08-10T17:40:28.445Z,30.02
2022-08-10T17:42:57.031Z,29.87
2022-08-10T17:45:47.749Z,29.84
2022-08-10T17:48:15.365Z,29.91
2022-08-10T17:50:50.124Z,29.83
2022-08-10T17:53:22.221Z,29.80
2022-08-10T17:55:55.408Z,29.70
2022-08-10T17:58:27.059Z,29.42
2022-08-10T18:01:38.539Z,29.46
2022-08-10T18:03:52.124Z,29.40
2022-08-10T18:06:23.056Z,29.29
2022-08-10T18:08:56.830Z,29.27
2022-08-10T18:11:29.982Z,29.33
2022-08-10T18:14:02.907Z,29.31
2022-08-10T18:16:34.054Z,29.22
2022-08-10T18:19:06.147Z,28.89
2022-08-10T18:21:40.069Z,28.86
2022-08-10T18:24:16.496Z,28.82
2022-08-10T18:26:46.998Z,28.91
2022-08-10T18:29:18.826Z,28.89
2022-08-10T18:31:49.537Z,28.90
2022-08-10T18:34:23.362Z,28.65
2022-08-10T18:36:54.169Z,28.44
2022-08-10T18:39:25.467Z,28.54
2022-08-10T18:42:00.684Z,28.48
2022-08-10T18:44:37.028Z,28.39
2022-08-10T18:47:10.434Z,28.47
2022-08-10T18:49:51.602Z,28.18
2022-08-10T18:52:24.064Z,28.11
2022-08-10T18:54:55.482Z,27.88
2022-08-10T18:57:35.879Z,27.59
2022-08-10T19:00:10.030Z,27.61
2022-08-10T19:03:06.194Z,27.36
2022-08-10T19:05:54.564Z,27.29
2022-08-10T19:08:49.213Z,27.30
2022-08-10T19:11:30.912Z,27.27
2022-08-10T19:14:04.253Z,27.44
2022-08-10T19:16:40.821Z,27.52
2022-08-10T19:19:22.945Z,27.52
2022-08-10T19:22:00.996Z,27.34
2022-08-10T19:24:44.285Z,26.94
2022-08-10T19:27:22.454Z,26.66
2022-08-10T19:30:12.102Z,26.57
2022-08-10T19:33:07.251Z,26.27
2022-08-10T19:36:03.052Z,26.29
2022-08-10T19:38:49.603Z,25.83
2022-08-10T19:41:31.872Z,25.59
2022-08-10T19:44:13.468Z,25.31
2022-08-10T19:46:45.549Z,25.22
2022-08-10T19:49:32.004Z,25.10
2022-08-10T19:52:12.009Z,24.92
2022-08-10T19:54:50.604Z,24.75
2022-08-10T19:57:30.313Z,24.75
2022-08-10T20:00:19.633Z,24.59
2022-08-10T20:03:11.818Z,24.30
2022-08-10T20:06:13.091Z,24.20
2022-08-10T20:08:45.743Z,23.94
2022-08-10T20:11:45.548Z,23.78
2022-08-10T20:14:21.584Z,23.65
2022-08-10T20:16:56.220Z,23.58
2022-08-10T20:19:53.398Z,23.64
2022-08-10T20:22:29.842Z,23.35
2022-08-10T20:25:03.372Z,23.18
2022-08-10T20:28:00.219Z,23.13
2022-08-10T20:30:30.016Z,23.11
2022-08-10T20:33:09.416Z,22.99
2022-08-10T20:35:48.364Z,22.90
2022-08-10T20:38:27.144Z,22.70
2022-08-10T20:41:04.435Z,22.60
2022-08-10T20:43:42.726Z,22.55
2022-08-10T20:46:23.507Z,22.53
2022-08-10T20:48:57.951Z,22.33
2022-08-10T20:51:59.368Z,22.12
2022-08-10T20:54:22.697Z,22.00
2022-08-10T20:57:07.079Z,21.95
2022-08-10T21:00:06.697Z,21.97
2022-08-10T21:03:06.619Z,21.85
2022-08-10T21:05:50.196Z,21.74
2022-08-10T21:08:30.087Z,21.64
2022-08-10T21:11:08.505Z,21.46
2022-08-10T21:13:55.007Z,21.38
2022-08-10T21:16:37.986Z,21.35
2022-08-10T21:19:29.995Z,21.22
2022-08-10T21:22:12.999Z,21.21
2022-08-10T21:24:52.215Z,21.00
2022-08-10T21:27:41.078Z,21.11
2022-08-10T21:30:10.175Z,21.01
2022-08-10T21:32:54.500Z,20.99
2022-08-10T21:35:36.503Z,20.91
2022-08-10T21:38:11.702Z,20.86
2022-08-10T21:41:18.322Z,20.77
2022-08-10T21:44:08.323Z,20.57
2022-08-10T21:47:07.467Z,20.53
2022-08-10T21:50:17.131Z,20.48
2022-08-10T21:53:16.790Z,20.32
2022-08-10T21:56:14.112Z,20.33
2022-08-10T21:59:06.792Z,20.26
2022-08-10T22:01:57.370Z,20.27
2022-08-10T22:04:45.470Z,20.09
2022-08-10T22:07:36.296Z,20.00
2022-08-10T22:10:26.013Z,19.84
2022-08-10T22:13:13.958Z,19.75
2022-08-10T22:16:09.856Z,19.76
2022-08-10T22:19:02.899Z,19.68
2022-08-10T22:22:04.410Z,19.56
2022-08-10T22:25:16.752Z,19.52
2022-08-10T22:28:17.777Z,19.64
2022-08-10T22:31:29.840Z,19.51
2022-08-10T22:34:24.813Z,19.50
2022-08-10T22:37:24.178Z,19.33
2022-08-10T22:40:20.805Z,19.25
2022-08-10T22:43:12.127Z,19.19
2022-08-10T22:46:05.336Z,19.14
2022-08-10T22:48:59.449Z,19.04
2022-08-10T22:51:35.619Z,18.97
2022-08-10T22:54:31.057Z,18.99
2022-08-10T22:57:18.585Z,18.81
2022-08-10T22:59:49.269Z,18.79
2022-08-10T23:02:34.125Z,18.77
2022-08-10T23:05:10.167Z,18.79
2022-08-10T23:07:47.403Z,18.78
2022-08-10T23:10:17.318Z,18.72
2022-08-10T23:12:49.770Z,18.70
2022-08-10T23:15:45.028Z,18.65
2022-08-10T23:18:36.585Z,18.65
2022-08-10T23:21:05.830Z,18.61
2022-08-10T23:28:38.729Z,18.48
2022-08-10T23:31:50.302Z,18.63
2022-08-10T23:34:12.523Z,18.51
2022-08-10T23:36:42.147Z,18.45
2022-08-10T23:39:27.360Z,18.46
2022-08-10T23:42:04.723Z,18.36
2022-08-10T23:44:42.668Z,18.18
2022-08-10T23:47:13.417Z,18.20
2022-08-10T23:49:42.010Z,18.19
2022-08-10T23:52:11.151Z,18.07
2022-08-10T23:54:43.682Z,18.03
2022-08-10T23:57:15.343Z,18.00
2022-08-10T23:59:44.009Z,18.00
